Lebanon, Kansas
Current Conditions -  °F | °C
As of 3:55 AM on Tuesday 27 Jan 2015 (Local Time) from KCNK Reporting Station
Clear Clear  
Wind Chill: 36°   Ceiling: Unl
Heat Index: 36°   Visibility: 10mi
Dew Point: 31°   Wind: 0mph
Humidity: 82%   Direction: NA
Pressure: 30.08"   Gusts: NA
Location:  39.81°N, 98.56°W
Report Text: KCNK 270955Z AUTO 00000KT 10SM CLR 02/M01 A3008 RMK AO2 SLP186 T00221006
Loading
Personal Weather Stations






























Interactive Weather Map New forecast layout! Learn more

10-Day Weather Forecast

Advertisements
Track Severe Weather on mobile